createdAt,value
2019-05-17T00:00:20.530Z,9.15
2019-05-17T00:02:48.512Z,9.07
2019-05-17T00:05:17.824Z,8.96
2019-05-17T00:07:47.501Z,8.91
2019-05-17T00:10:17.391Z,8.85
2019-05-17T00:12:47.212Z,9.00
2019-05-17T00:15:17.048Z,9.07
2019-05-17T00:17:46.845Z,9.07
2019-05-17T00:20:17.257Z,9.12
2019-05-17T00:22:47.148Z,9.15
2019-05-17T00:25:16.771Z,9.07
2019-05-17T00:27:47.178Z,8.99
2019-05-17T00:30:14.570Z,9.05
2019-05-17T00:32:42.375Z,9.02
2019-05-17T00:35:10.677Z,8.96
2019-05-17T00:37:38.486Z,8.91
2019-05-17T00:40:07.626Z,8.93
2019-05-17T00:42:37.212Z,8.91
2019-05-17T00:45:06.770Z,8.92
2019-05-17T00:47:37.209Z,8.88
2019-05-17T00:50:07.545Z,8.90
2019-05-17T00:52:36.866Z,8.98
2019-05-17T00:55:06.761Z,9.05
2019-05-17T00:57:36.923Z,9.00
2019-05-17T01:00:04.875Z,9.00
2019-05-17T01:02:32.651Z,9.06
2019-05-17T01:05:00.436Z,9.01
2019-05-17T01:07:28.413Z,8.95
2019-05-17T01:09:56.622Z,8.96
2019-05-17T01:12:26.976Z,8.92
2019-05-17T01:14:54.403Z,8.85
2019-05-17T01:17:22.498Z,8.98
2019-05-17T01:19:50.466Z,9.01
2019-05-17T01:22:18.416Z,9.17
2019-05-17T01:24:46.511Z,9.11
2019-05-17T01:27:14.456Z,9.13
2019-05-17T01:29:42.272Z,9.24
2019-05-17T01:32:10.106Z,9.22
2019-05-17T01:34:38.067Z,9.30
2019-05-17T01:37:06.564Z,9.27
2019-05-17T01:39:34.395Z,9.20
2019-05-17T01:42:02.190Z,9.14
2019-05-17T01:44:30.109Z,9.11
2019-05-17T01:46:57.928Z,9.18
2019-05-17T01:49:27.072Z,9.19
2019-05-17T01:51:56.804Z,9.00
2019-05-17T01:54:26.880Z,9.16
2019-05-17T01:56:56.638Z,9.23
2019-05-17T01:59:26.646Z,9.30
2019-05-17T02:01:57.582Z,9.28
2019-05-17T02:04:26.814Z,9.32
2019-05-17T02:06:57.267Z,9.21
2019-05-17T02:09:34.898Z,9.14
2019-05-17T02:11:54.310Z,9.26
2019-05-17T02:14:22.308Z,9.28
2019-05-17T02:16:50.085Z,9.16
2019-05-17T02:19:17.862Z,8.96
2019-05-17T02:21:47.881Z,8.94
2019-05-17T02:24:16.918Z,8.93
2019-05-17T02:26:46.545Z,9.01
2019-05-17T02:29:14.585Z,8.92
2019-05-17T02:31:43.444Z,8.95
2019-05-17T02:34:14.110Z,8.83
2019-05-17T02:36:43.139Z,8.92
2019-05-17T02:39:13.135Z,8.97
2019-05-17T02:41:43.086Z,9.12
2019-05-17T02:44:13.097Z,9.14
2019-05-17T02:46:43.091Z,9.17
2019-05-17T02:49:13.439Z,9.26
2019-05-17T02:51:42.909Z,9.11
2019-05-17T02:54:12.999Z,9.28
2019-05-17T02:56:39.301Z,9.34
2019-05-17T02:59:07.294Z,9.40
2019-05-17T03:01:35.244Z,9.40
2019-05-17T03:04:04.073Z,9.49
2019-05-17T03:06:32.822Z,9.39
2019-05-17T03:09:03.510Z,9.42
2019-05-17T03:11:33.320Z,9.45
2019-05-17T03:14:03.664Z,9.47
2019-05-17T03:16:33.592Z,9.49
2019-05-17T03:19:03.781Z,9.34
2019-05-17T03:21:33.484Z,9.31
2019-05-17T03:24:02.874Z,9.35
2019-05-17T03:26:32.566Z,9.41
2019-05-17T03:29:02.878Z,9.40
2019-05-17T03:31:35.944Z,9.41
2019-05-17T03:34:06.721Z,9.35
2019-05-17T03:36:36.088Z,9.38
2019-05-17T03:39:03.043Z,9.45
2019-05-17T03:41:33.795Z,9.47
2019-05-17T03:44:03.168Z,9.32
2019-05-17T03:46:33.174Z,9.36
2019-05-17T03:49:03.491Z,9.48
2019-05-17T03:51:33.034Z,9.50
2019-05-17T03:54:02.453Z,9.60
2019-05-17T03:56:29.570Z,9.74
2019-05-17T03:58:57.373Z,9.71
2019-05-17T04:01:25.366Z,9.56
2019-05-17T04:03:53.235Z,9.77
2019-05-17T04:06:23.853Z,9.86
2019-05-17T04:08:52.777Z,9.98
2019-05-17T04:11:31.082Z,10.00
2019-05-17T04:13:53.513Z,10.12
2019-05-17T04:16:23.605Z,10.17
2019-05-17T04:18:49.816Z,10.26
2019-05-17T04:21:17.876Z,10.25
2019-05-17T04:23:45.665Z,10.14
2019-05-17T04:26:13.847Z,10.15
2019-05-17T04:28:44.149Z,10.25
2019-05-17T04:31:13.421Z,10.39
2019-05-17T04:33:42.873Z,10.51
2019-05-17T04:36:13.099Z,10.60
2019-05-17T04:38:43.477Z,10.61
2019-05-17T04:41:13.348Z,10.71
2019-05-17T04:43:42.496Z,10.66
2019-05-17T04:46:12.728Z,10.68
2019-05-17T04:48:43.512Z,10.80
2019-05-17T04:51:12.857Z,10.73
2019-05-17T04:53:43.040Z,10.60
2019-05-17T04:56:13.697Z,10.51
2019-05-17T04:58:42.667Z,10.63
2019-05-17T05:01:12.930Z,10.45
2019-05-17T05:03:39.377Z,10.51
2019-05-17T05:06:07.179Z,10.62
2019-05-17T05:08:34.979Z,10.82
2019-05-17T05:11:04.139Z,10.80
2019-05-17T05:13:33.310Z,11.09
2019-05-17T05:16:03.050Z,10.93
2019-05-17T05:18:33.781Z,11.03
2019-05-17T05:21:05.416Z,11.08
2019-05-17T05:23:33.201Z,11.16
2019-05-17T05:26:03.044Z,11.17
2019-05-17T05:28:31.767Z,11.35
2019-05-17T05:31:01.868Z,11.57
2019-05-17T05:33:29.461Z,11.54
2019-05-17T05:35:57.259Z,11.61
2019-05-17T05:38:25.073Z,11.58
2019-05-17T05:40:53.215Z,11.55
2019-05-17T05:43:22.583Z,11.72
2019-05-17T05:45:50.650Z,11.58
2019-05-17T05:48:18.487Z,11.50
2019-05-17T05:50:46.306Z,11.61
2019-05-17T05:53:14.137Z,11.57
2019-05-17T05:55:42.783Z,11.58
2019-05-17T05:58:12.082Z,11.70
2019-05-17T06:00:42.516Z,12.01
2019-05-17T06:03:12.094Z,11.92
2019-05-17T06:05:42.246Z,12.04
2019-05-17T06:08:12.255Z,12.23
2019-05-17T06:10:42.639Z,12.22
2019-05-17T06:13:09.498Z,12.33
2019-05-17T06:15:37.343Z,12.45
2019-05-17T06:18:05.191Z,12.46
2019-05-17T06:20:33.108Z,12.59
2019-05-17T06:23:02.558Z,12.63
2019-05-17T06:25:33.763Z,12.41
2019-05-17T06:28:01.543Z,12.41
2019-05-17T06:30:32.218Z,12.59
2019-05-17T06:32:59.288Z,12.96
2019-05-17T06:35:27.421Z,13.06
2019-05-17T06:37:55.270Z,13.07
2019-05-17T06:40:23.040Z,12.96
2019-05-17T06:42:52.537Z,13.05
2019-05-17T06:45:22.090Z,12.91
2019-05-17T06:47:51.867Z,12.97
2019-05-17T06:50:19.738Z,12.87
2019-05-17T06:52:47.543Z,13.36
2019-05-17T06:55:15.328Z,13.49
2019-05-17T06:57:43.615Z,13.47
2019-05-17T07:00:19.226Z,13.76
2019-05-17T07:02:41.917Z,13.43
2019-05-17T07:05:13.118Z,13.41
2019-05-17T07:07:40.965Z,13.31
2019-05-17T07:10:11.118Z,13.72
2019-05-17T07:12:54.124Z,13.77
2019-05-17T07:15:10.770Z,13.94
2019-05-17T07:17:39.970Z,14.18
2019-05-17T07:20:10.411Z,14.43
2019-05-17T07:22:40.721Z,14.54
2019-05-17T07:25:10.875Z,14.58
2019-05-17T07:27:42.663Z,14.62
2019-05-17T07:30:09.979Z,14.75
2019-05-17T07:32:40.261Z,14.80
2019-05-17T07:35:10.420Z,14.96
2019-05-17T07:37:39.689Z,15.05
2019-05-17T07:40:10.802Z,14.81
2019-05-17T07:42:39.713Z,14.42
2019-05-17T07:45:10.038Z,14.34
2019-05-17T07:47:40.127Z,14.43
2019-05-17T07:50:07.844Z,14.59
2019-05-17T07:52:35.664Z,14.96
2019-05-17T07:55:04.061Z,15.09
2019-05-17T07:57:31.922Z,15.19
2019-05-17T08:00:00.114Z,15.70
2019-05-17T08:02:30.462Z,15.44
2019-05-17T08:05:00.239Z,15.25
2019-05-17T08:07:27.452Z,15.47
2019-05-17T08:09:55.324Z,15.75
2019-05-17T08:12:23.197Z,16.30
2019-05-17T08:14:51.046Z,17.87
2019-05-17T08:17:19.816Z,17.91
2019-05-17T08:19:49.808Z,18.82
2019-05-17T08:22:20.008Z,20.59
2019-05-17T08:24:49.237Z,20.19
2019-05-17T08:27:17.037Z,20.70
2019-05-17T08:29:44.919Z,23.23
2019-05-17T08:32:12.694Z,24.87
2019-05-17T08:34:40.554Z,27.41
2019-05-17T08:37:09.495Z,29.18
2019-05-17T08:39:39.813Z,31.22
2019-05-17T08:42:09.630Z,33.92
2019-05-17T08:44:39.022Z,35.35
2019-05-17T08:47:06.645Z,36.40
2019-05-17T08:49:34.498Z,35.29
2019-05-17T08:52:02.337Z,37.77
2019-05-17T08:54:30.473Z,39.40
2019-05-17T08:57:00.522Z,40.22
2019-05-17T08:59:29.655Z,39.26
2019-05-17T09:01:59.968Z,36.36
2019-05-17T09:04:29.618Z,32.44
2019-05-17T09:06:57.065Z,29.89
2019-05-17T09:09:24.836Z,28.25
2019-05-17T09:11:52.630Z,26.54
2019-05-17T09:14:21.458Z,25.41
2019-05-17T09:16:50.462Z,25.93
2019-05-17T09:19:19.407Z,26.36
2019-05-17T09:21:47.311Z,24.08
2019-05-17T09:24:15.151Z,24.06
2019-05-17T09:26:42.917Z,24.54
2019-05-17T09:29:10.899Z,25.41
2019-05-17T09:31:40.379Z,23.87
2019-05-17T09:34:09.665Z,24.87
2019-05-17T09:36:37.550Z,25.29
2019-05-17T09:39:09.344Z,25.72
2019-05-17T09:41:37.034Z,26.16
2019-05-17T09:44:12.854Z,24.96
2019-05-17T09:46:34.567Z,23.72
2019-05-17T09:49:03.844Z,23.35
2019-05-17T09:51:31.661Z,23.24
2019-05-17T09:54:00.069Z,22.66
2019-05-17T09:56:30.178Z,21.78
2019-05-17T09:59:00.228Z,21.76
2019-05-17T10:01:27.473Z,21.93
2019-05-17T10:03:55.299Z,22.07
2019-05-17T10:06:23.085Z,21.82
2019-05-17T10:08:50.863Z,21.50
2019-05-17T10:11:20.305Z,21.01
2019-05-17T10:13:49.891Z,20.25
2019-05-17T10:16:20.310Z,20.04
2019-05-17T10:18:47.859Z,19.47
2019-05-17T10:21:15.700Z,19.71
2019-05-17T10:23:43.560Z,20.28
2019-05-17T10:26:11.412Z,21.02
2019-05-17T10:28:40.010Z,21.63
2019-05-17T10:31:11.640Z,23.86
2019-05-17T10:33:39.952Z,26.06
2019-05-17T10:36:07.532Z,25.71
2019-05-17T10:38:35.412Z,25.55
2019-05-17T10:41:10.174Z,24.89
2019-05-17T10:43:39.278Z,23.98
2019-05-17T10:46:07.301Z,23.10
2019-05-17T10:48:35.264Z,22.01
2019-05-17T10:51:05.768Z,21.71
2019-05-17T10:53:33.792Z,21.42
2019-05-17T10:56:01.667Z,21.00
2019-05-17T10:58:29.804Z,20.80
2019-05-17T11:00:57.750Z,20.75
2019-05-17T11:03:25.577Z,21.08
2019-05-17T11:05:53.385Z,20.78
2019-05-17T11:08:21.256Z,21.07
2019-05-17T11:10:50.198Z,21.18
2019-05-17T11:13:21.294Z,21.47
2019-05-17T11:15:49.133Z,21.97
2019-05-17T11:18:17.282Z,22.46
2019-05-17T11:20:45.286Z,24.56
2019-05-17T11:23:13.137Z,27.31
2019-05-17T11:25:45.400Z,30.21
2019-05-17T11:28:10.705Z,30.83
2019-05-17T11:30:38.516Z,30.10
2019-05-17T11:33:06.344Z,28.64
2019-05-17T11:35:34.212Z,28.80
2019-05-17T11:38:01.989Z,27.86
2019-05-17T11:40:30.069Z,27.56
2019-05-17T11:42:57.902Z,26.79
2019-05-17T11:45:29.089Z,25.89
2019-05-17T11:47:55.448Z,25.22
2019-05-17T11:50:23.349Z,24.79
2019-05-17T11:52:51.171Z,24.78
2019-05-17T11:55:19.009Z,25.29
2019-05-17T11:57:46.848Z,25.44
2019-05-17T12:00:16.672Z,24.46
2019-05-17T12:02:44.569Z,24.39
2019-05-17T12:05:12.656Z,24.46
2019-05-17T12:07:40.525Z,25.53
2019-05-17T12:10:08.744Z,27.56
2019-05-17T12:12:36.590Z,29.78
2019-05-17T12:15:04.812Z,31.07
2019-05-17T12:17:32.702Z,29.83
2019-05-17T12:20:00.472Z,30.52
2019-05-17T12:22:28.317Z,31.36
2019-05-17T12:24:56.180Z,32.48
2019-05-17T12:27:24.014Z,33.21
2019-05-17T12:29:51.886Z,31.66
2019-05-17T12:32:19.727Z,30.12
2019-05-17T12:34:47.582Z,27.09
2019-05-17T12:37:15.427Z,24.97
2019-05-17T12:39:43.243Z,24.90
2019-05-17T12:42:11.237Z,25.82
2019-05-17T12:44:39.134Z,28.09
2019-05-17T12:47:07.092Z,28.75
2019-05-17T12:49:34.895Z,27.69
2019-05-17T12:52:03.810Z,26.23
2019-05-17T12:54:31.618Z,25.65
2019-05-17T12:56:59.423Z,24.51
2019-05-17T12:59:27.187Z,23.29
2019-05-17T13:01:54.998Z,23.70
2019-05-17T13:04:22.753Z,23.56
2019-05-17T13:06:50.570Z,24.12
2019-05-17T13:09:18.408Z,24.00
2019-05-17T13:11:46.247Z,24.40
2019-05-17T13:14:14.123Z,27.46
2019-05-17T13:16:41.983Z,31.17
2019-05-17T13:19:09.753Z,31.65
2019-05-17T13:21:37.528Z,28.86
2019-05-17T13:24:05.408Z,26.31
2019-05-17T13:26:33.179Z,26.25
2019-05-17T13:29:01.126Z,25.31
2019-05-17T13:31:28.929Z,24.36
2019-05-17T13:33:56.738Z,23.38
2019-05-17T13:36:24.567Z,22.79
2019-05-17T13:38:52.463Z,21.95
2019-05-17T13:41:20.264Z,21.78
2019-05-17T13:43:48.213Z,21.40
2019-05-17T13:46:16.090Z,21.14
2019-05-17T13:48:43.883Z,21.09
2019-05-17T13:51:11.669Z,21.11
2019-05-17T13:53:39.491Z,21.48
2019-05-17T13:56:07.275Z,21.15
2019-05-17T13:58:35.093Z,21.52
2019-05-17T14:01:02.895Z,22.16
2019-05-17T14:03:30.683Z,22.78
2019-05-17T14:05:58.600Z,22.70
2019-05-17T14:08:26.388Z,23.02
2019-05-17T14:10:54.233Z,23.01
2019-05-17T14:13:22.102Z,22.23
2019-05-17T14:15:50.010Z,21.98
2019-05-17T14:18:17.845Z,21.17
2019-05-17T14:20:45.743Z,20.98
2019-05-17T14:23:13.548Z,21.00
2019-05-17T14:25:41.382Z,20.85
2019-05-17T14:28:11.311Z,21.31
2019-05-17T14:30:38.871Z,21.61
2019-05-17T14:33:06.666Z,21.63
2019-05-17T14:35:34.558Z,21.98
2019-05-17T14:38:02.397Z,21.99
2019-05-17T14:41:04.000Z,22.12
2019-05-17T14:43:00.071Z,21.62
2019-05-17T14:45:27.885Z,21.50
2019-05-17T14:47:55.706Z,21.26
2019-05-17T14:50:23.544Z,21.09
2019-05-17T14:52:51.610Z,21.11
2019-05-17T14:55:19.390Z,21.42
2019-05-17T14:57:47.237Z,21.63
2019-05-17T15:00:18.039Z,21.78
2019-05-17T15:02:45.852Z,21.37
2019-05-17T15:05:13.964Z,21.61
2019-05-17T15:07:41.760Z,21.15
2019-05-17T15:10:09.771Z,21.06
2019-05-17T15:12:37.586Z,20.34
2019-05-17T15:15:05.774Z,20.23
2019-05-17T15:17:35.244Z,20.29
2019-05-17T15:20:03.276Z,20.79
2019-05-17T15:22:31.131Z,21.19
2019-05-17T15:24:59.022Z,21.37
2019-05-17T15:27:26.965Z,21.19
2019-05-17T15:29:54.725Z,21.38
2019-05-17T15:32:22.500Z,21.77
2019-05-17T15:34:50.448Z,21.72
2019-05-17T15:37:18.214Z,21.91
2019-05-17T15:39:46.062Z,21.44
2019-05-17T15:42:13.900Z,21.38
2019-05-17T15:44:41.729Z,20.66
2019-05-17T15:47:09.821Z,20.57
2019-05-17T15:49:37.655Z,20.53
2019-05-17T15:52:05.464Z,20.40
2019-05-17T15:54:33.326Z,20.24
2019-05-17T15:57:01.238Z,19.95
2019-05-17T15:59:29.026Z,20.08
2019-05-17T16:01:56.862Z,20.32
2019-05-17T16:04:24.679Z,20.76
2019-05-17T16:06:52.482Z,21.07
2019-05-17T16:09:20.421Z,21.28
2019-05-17T16:11:48.230Z,21.45
2019-05-17T16:14:16.008Z,21.39
2019-05-17T16:16:43.790Z,21.05
2019-05-17T16:19:11.589Z,20.48
2019-05-17T16:21:39.509Z,20.06
2019-05-17T16:24:07.342Z,20.15
2019-05-17T16:26:35.159Z,20.08
2019-05-17T16:29:03.108Z,19.81
2019-05-17T16:31:31.030Z,19.69
2019-05-17T16:33:58.909Z,19.72
2019-05-17T16:36:26.720Z,19.57
2019-05-17T16:38:54.560Z,19.57
2019-05-17T16:41:22.425Z,19.52
2019-05-17T16:43:50.251Z,19.43
2019-05-17T16:46:18.194Z,19.26
2019-05-17T16:48:46.035Z,19.17
2019-05-17T16:51:13.846Z,19.16
2019-05-17T16:53:41.989Z,19.10
2019-05-17T16:56:09.836Z,19.05
2019-05-17T16:58:37.720Z,19.08
2019-05-17T17:01:05.675Z,19.02
2019-05-17T17:03:43.770Z,19.19
2019-05-17T17:06:03.397Z,19.40
2019-05-17T17:08:31.366Z,19.39
2019-05-17T17:10:59.156Z,19.34
2019-05-17T17:13:33.036Z,19.28
2019-05-17T17:15:56.773Z,19.43
2019-05-17T17:18:24.615Z,19.30
2019-05-17T17:20:52.468Z,19.09
2019-05-17T17:23:20.353Z,19.01
2019-05-17T17:25:48.122Z,18.94
2019-05-17T17:28:15.969Z,18.93
2019-05-17T17:30:43.755Z,18.96
2019-05-17T17:33:11.658Z,18.86
2019-05-17T17:35:39.500Z,18.83
2019-05-17T17:38:07.349Z,18.67
2019-05-17T17:40:35.364Z,18.58
2019-05-17T17:43:03.263Z,18.56
2019-05-17T17:45:31.092Z,18.49
2019-05-17T17:47:58.893Z,18.50
2019-05-17T17:50:26.763Z,18.48
2019-05-17T17:52:54.725Z,18.46
2019-05-17T17:55:22.551Z,18.31
2019-05-17T17:57:50.622Z,18.24
2019-05-17T18:00:21.427Z,18.11
2019-05-17T18:02:49.397Z,18.07
2019-05-17T18:05:17.537Z,17.99
2019-05-17T18:07:45.375Z,18.00
2019-05-17T18:10:25.756Z,17.96
2019-05-17T18:12:53.587Z,17.82
2019-05-17T18:15:39.218Z,17.82
2019-05-17T18:18:07.048Z,17.72
2019-05-17T18:20:35.095Z,17.63
2019-05-17T18:23:03.435Z,17.54
2019-05-17T18:25:31.295Z,17.49
2019-05-17T18:27:59.136Z,17.50
2019-05-17T18:30:27.051Z,17.42
2019-05-17T18:32:54.863Z,17.35
2019-05-17T18:35:22.715Z,17.30
2019-05-17T18:37:50.498Z,17.14
2019-05-17T18:40:18.441Z,16.99
2019-05-17T18:42:46.225Z,16.94
2019-05-17T18:45:14.479Z,16.89
2019-05-17T18:47:42.323Z,16.83
2019-05-17T18:50:12.269Z,16.75
2019-05-17T18:52:40.136Z,16.76
2019-05-17T18:55:08.501Z,16.61
2019-05-17T18:57:36.455Z,16.62
2019-05-17T19:00:05.377Z,16.57
2019-05-17T19:02:33.177Z,16.48
2019-05-17T19:05:00.989Z,16.40
2019-05-17T19:07:28.785Z,16.34
2019-05-17T19:09:56.605Z,16.23
2019-05-17T19:12:24.424Z,16.16
2019-05-17T19:14:52.346Z,16.07
2019-05-17T19:17:20.122Z,15.98
2019-05-17T19:19:47.939Z,15.90
2019-05-17T19:22:15.769Z,15.79
2019-05-17T19:24:43.637Z,15.71
2019-05-17T19:27:11.486Z,15.66
2019-05-17T19:29:39.562Z,15.58
2019-05-17T19:32:07.392Z,15.58
2019-05-17T19:34:35.182Z,15.48
2019-05-17T19:37:03.143Z,15.46
2019-05-17T19:39:30.925Z,15.41
2019-05-17T19:41:58.773Z,15.35
2019-05-17T19:44:26.599Z,15.30
2019-05-17T19:46:54.547Z,15.28
2019-05-17T19:49:22.374Z,15.20
2019-05-17T19:51:50.249Z,15.18
2019-05-17T19:54:18.071Z,15.13
2019-05-17T19:56:45.855Z,15.07
2019-05-17T19:59:13.661Z,14.99
2019-05-17T20:01:41.496Z,14.89
2019-05-17T20:04:09.277Z,14.84
2019-05-17T20:06:37.086Z,14.82
2019-05-17T20:09:05.680Z,14.81
2019-05-17T20:11:34.689Z,14.74
2019-05-17T20:14:02.717Z,14.75
2019-05-17T20:16:30.547Z,14.73
2019-05-17T20:18:58.494Z,14.71
2019-05-17T20:21:26.314Z,14.63
2019-05-17T20:23:54.263Z,14.60
2019-05-17T20:26:22.069Z,14.52
2019-05-17T20:28:49.931Z,14.47
2019-05-17T20:31:17.795Z,14.42
2019-05-17T20:33:45.596Z,14.41
2019-05-17T20:36:13.406Z,14.35
2019-05-17T20:38:41.306Z,14.31
2019-05-17T20:41:09.122Z,14.27
2019-05-17T20:43:36.901Z,14.23
2019-05-17T20:46:04.807Z,14.09
2019-05-17T20:48:32.688Z,14.09
2019-05-17T20:51:00.675Z,14.06
2019-05-17T20:53:28.640Z,14.07
2019-05-17T20:55:56.444Z,13.99
2019-05-17T20:58:25.098Z,13.93
2019-05-17T21:00:52.912Z,13.86
2019-05-17T21:03:20.740Z,13.80
2019-05-17T21:05:48.618Z,13.85
2019-05-17T21:08:16.562Z,13.75
2019-05-17T21:10:44.312Z,13.75
2019-05-17T21:13:12.172Z,13.64
2019-05-17T21:15:47.459Z,13.64
2019-05-17T21:18:09.637Z,13.56
2019-05-17T21:20:37.463Z,13.56
2019-05-17T21:23:05.406Z,13.50
2019-05-17T21:25:33.172Z,13.37
2019-05-17T21:28:01.036Z,13.32
2019-05-17T21:30:28.849Z,13.23
2019-05-17T21:32:56.719Z,13.23
2019-05-17T21:35:24.501Z,13.15
2019-05-17T21:37:52.363Z,13.20
2019-05-17T21:40:20.193Z,13.13
2019-05-17T21:42:48.006Z,13.04
2019-05-17T21:45:16.140Z,13.02
2019-05-17T21:47:44.268Z,13.01
2019-05-17T21:50:12.229Z,13.01
2019-05-17T21:52:40.175Z,13.01
2019-05-17T21:55:08.190Z,13.02
2019-05-17T21:57:36.175Z,13.11
2019-05-17T22:00:09.991Z,13.19
2019-05-17T22:02:37.923Z,12.98
2019-05-17T22:05:06.009Z,12.91
2019-05-17T22:07:33.855Z,12.96
2019-05-17T22:10:01.796Z,12.93
2019-05-17T22:12:31.381Z,12.89
2019-05-17T22:14:59.192Z,12.77
2019-05-17T22:17:27.003Z,12.76
2019-05-17T22:19:54.814Z,12.78
2019-05-17T22:22:22.598Z,12.70
2019-05-17T22:24:50.450Z,12.69
2019-05-17T22:27:18.241Z,12.72
2019-05-17T22:29:46.065Z,12.65
2019-05-17T22:32:13.882Z,12.60
2019-05-17T22:34:41.654Z,12.60
2019-05-17T22:37:09.541Z,12.58
2019-05-17T22:39:37.335Z,12.56
2019-05-17T22:42:05.131Z,12.53
2019-05-17T22:44:32.933Z,12.44
2019-05-17T22:47:00.845Z,12.44
2019-05-17T22:49:28.739Z,12.46
2019-05-17T22:51:56.538Z,12.35
2019-05-17T22:54:24.873Z,12.28
2019-05-17T22:56:52.679Z,12.29
2019-05-17T22:59:20.469Z,12.26
2019-05-17T23:01:48.253Z,12.24
2019-05-17T23:04:16.042Z,12.22
2019-05-17T23:06:43.852Z,12.12
2019-05-17T23:09:11.631Z,12.00
2019-05-17T23:11:39.449Z,12.03
2019-05-17T23:14:07.239Z,12.06
2019-05-17T23:16:50.255Z,12.04
2019-05-17T23:19:10.670Z,12.02
2019-05-17T23:21:38.612Z,11.99
2019-05-17T23:24:06.771Z,11.86
2019-05-17T23:26:35.389Z,11.88
2019-05-17T23:29:03.418Z,11.84
2019-05-17T23:31:31.243Z,11.70
2019-05-17T23:33:59.064Z,11.75
2019-05-17T23:36:26.892Z,11.68
2019-05-17T23:38:54.714Z,11.73
2019-05-17T23:41:22.602Z,11.66
2019-05-17T23:43:52.019Z,11.68
2019-05-17T23:46:19.882Z,11.67
2019-05-17T23:48:47.648Z,11.66
2019-05-17T23:51:15.573Z,11.52
2019-05-17T23:53:43.385Z,11.48
2019-05-17T23:56:11.205Z,11.51
2019-05-17T23:58:38.997Z,11.51
